Etusivu
METAR-TAF:

METAR-TAF

Lentoasemat :

Växjö, Ruotsi

Leveyspiiri: 56-51N, Pituuspiiri: 014-50E, korkeus merenpinnasta: 199 m

Tämänhetkinen sää

Tämä raportti tehtiin 15 minuuttia sitten, kello 23.50 UTC
Tuuli 9 kn lännestä
Lämpötila 5°C
Kosteus 81%
Ilmanpaine 1010 hPa
Näkyvyys 10 km tai enemmän
tuntematon

METAR: ESMX 242350Z AUTO 26009KT 9999 UP FEW018/// SCT024/// OVC031/// 05/02 Q1010

Aika: 01:05 (00:05 UTC)

Sääennuste

Tämä raportti tehtiin 6 tuntia ja 35 minuuttia sitten, kello 17.30 UTC
Ennuste voimassa 24. päivästä klo 18 UTC - 24. päivään klo 22 UTC
Tuuli 10 kn lännestä/lounaasta
Näkyvyys 10 km tai enemmän
Hajonneita pilviä 1700 ft:n korkeudessa
Todennäköisyys 40%
24. päivästä klo 18 UTC - 24. päivään klo 22 UTC
Hajonneita pilviä 900 ft:n korkeudessa

TAF: ESMX 241730Z 2418/2422 25010KT 9999 BKN017 PROB40 2418/2422 BKN009

Säähavainnot ja -ennusteet yli 4000 lentoasemalta (METAR- ja TAF-raportit).

Käytössä olevat sääasemat on merkitty karttaan keltaisilla ja punaisilla pisteillä.

Aseta hiiri pisteen päälle nähdäksesi sääaseman nimen.

Klikkaa sitten nähdäksesi säähavainnot ja -ennusteet.

Kartan vaihtaminen: klikkaa mustalla rastilla varustettuja vihreitä pisteitä, niin voit zoomata sisään; viivalla varustettua vihreää pistettä, niin voit zoomata ulos tai vihreitä nuolia, niin pääset viereisille kartoille.


METAR-TAF: